createdAt,value
2024-03-04T00:00:50.848Z,71.90
2024-03-04T00:02:23.353Z,72.70
2024-03-04T00:03:54.844Z,77.25
2024-03-04T00:05:26.368Z,77.28
2024-03-04T00:06:59.372Z,82.28
2024-03-04T00:08:30.770Z,74.90
2024-03-04T00:10:08.293Z,74.85
2024-03-04T00:11:39.804Z,72.55
2024-03-04T00:13:11.596Z,77.78
2024-03-04T00:14:43.646Z,73.55
2024-03-04T00:16:15.107Z,71.00
2024-03-04T00:17:46.633Z,74.95
2024-03-04T00:19:19.686Z,72.05
2024-03-04T00:20:51.157Z,76.47
2024-03-04T00:22:22.636Z,73.47
2024-03-04T00:23:54.727Z,74.22
2024-03-04T00:25:26.154Z,73.75
2024-03-04T00:26:57.893Z,71.30
2024-03-04T00:28:29.325Z,74.75
2024-03-04T00:30:00.861Z,66.40
2024-03-04T00:31:32.354Z,69.82
2024-03-04T00:33:04.758Z,66.15
2024-03-04T00:34:36.246Z,68.70
2024-03-04T00:36:08.145Z,68.18
2024-03-04T00:37:39.579Z,65.57
2024-03-04T00:39:11.000Z,65.32
2024-03-04T00:40:42.409Z,67.80
2024-03-04T00:42:13.956Z,61.05
2024-03-04T00:43:45.339Z,62.58
2024-03-04T00:45:16.894Z,64.40
2024-03-04T00:46:48.342Z,66.25
2024-03-04T00:48:19.887Z,62.47
2024-03-04T00:49:51.809Z,63.40
2024-03-04T00:51:23.709Z,64.57
2024-03-04T00:52:56.608Z,61.75
2024-03-04T00:54:28.131Z,62.88
2024-03-04T00:55:59.636Z,63.42
2024-03-04T00:57:31.215Z,63.80
2024-03-04T00:59:03.463Z,66.65
2024-03-04T01:02:13.008Z,66.40
2024-03-04T01:03:44.401Z,66.82
2024-03-04T01:05:15.854Z,62.22
2024-03-04T01:06:53.397Z,63.42
2024-03-04T01:08:25.872Z,65.40
2024-03-04T01:09:57.908Z,65.95
2024-03-04T01:11:29.401Z,66.93
2024-03-04T01:13:01.192Z,65.55
2024-03-04T01:14:32.747Z,62.85
2024-03-04T01:16:05.675Z,63.47
2024-03-04T01:17:37.449Z,61.70
2024-03-04T01:19:10.116Z,62.10
2024-03-04T01:20:42.223Z,61.78
2024-03-04T01:22:17.436Z,63.05
2024-03-04T01:23:51.912Z,64.57
2024-03-04T01:25:24.649Z,63.55
2024-03-04T01:26:57.801Z,62.50
2024-03-04T01:28:29.881Z,62.75
2024-03-04T01:30:01.674Z,62.17
2024-03-04T01:31:33.336Z,62.95
2024-03-04T01:33:08.363Z,60.38
2024-03-04T01:34:40.676Z,62.17
2024-03-04T01:36:12.833Z,59.15
2024-03-04T01:37:45.010Z,67.03
2024-03-04T01:39:16.667Z,61.67
2024-03-04T01:40:48.285Z,59.28
2024-03-04T01:42:19.705Z,64.68
2024-03-04T01:43:53.818Z,63.42
2024-03-04T01:45:28.705Z,60.55
2024-03-04T01:47:18.747Z,64.88
2024-03-04T01:48:50.162Z,58.33
2024-03-04T01:50:24.606Z,65.95
2024-03-04T01:51:57.006Z,60.53
2024-03-04T01:53:29.300Z,61.38
2024-03-04T01:55:00.754Z,61.05
2024-03-04T01:56:32.564Z,59.22
2024-03-04T01:58:05.821Z,63.22
2024-03-04T01:59:39.685Z,58.17
2024-03-04T02:01:12.562Z,58.25
2024-03-04T02:02:44.851Z,58.83
2024-03-04T02:04:16.735Z,59.95
2024-03-04T02:05:49.349Z,60.08
2024-03-04T02:07:21.023Z,58.25
2024-03-04T02:08:52.720Z,63.20
2024-03-04T02:10:24.291Z,57.55
2024-03-04T02:11:56.135Z,58.60
2024-03-04T02:13:28.874Z,59.88
2024-03-04T02:15:01.091Z,61.50
2024-03-04T02:16:33.006Z,58.67
2024-03-04T02:18:08.630Z,56.85
2024-03-04T02:19:40.224Z,58.30
2024-03-04T02:21:14.548Z,58.00
2024-03-04T02:22:46.857Z,56.42
2024-03-04T02:24:18.304Z,59.05
2024-03-04T02:25:54.032Z,57.67
2024-03-04T02:27:27.338Z,58.53
2024-03-04T02:29:01.172Z,58.42
2024-03-04T02:30:34.668Z,56.22
2024-03-04T02:32:07.036Z,54.45
2024-03-04T02:33:43.309Z,56.20
2024-03-04T02:35:14.749Z,55.70
2024-03-04T02:36:47.036Z,55.20
2024-03-04T02:38:19.880Z,56.58
2024-03-04T02:39:56.320Z,57.17
2024-03-04T02:41:27.843Z,60.85
2024-03-04T02:42:59.609Z,56.40
2024-03-04T02:44:31.954Z,58.53
2024-03-04T02:46:03.495Z,58.17
2024-03-04T02:47:34.929Z,55.33
2024-03-04T02:49:06.577Z,57.05
2024-03-04T02:50:39.306Z,57.13
2024-03-04T02:52:10.807Z,59.80
2024-03-04T02:53:42.347Z,58.33
2024-03-04T02:55:13.787Z,58.80
2024-03-04T02:56:45.342Z,62.67
2024-03-04T02:58:17.702Z,54.33
2024-03-04T02:59:49.245Z,56.92
2024-03-04T03:01:21.074Z,55.53
2024-03-04T03:02:52.659Z,57.17
2024-03-04T03:04:26.520Z,52.67
2024-03-04T03:05:58.072Z,55.03
2024-03-04T03:07:29.646Z,58.40
2024-03-04T03:09:01.272Z,57.03
2024-03-04T03:10:33.166Z,57.38
2024-03-04T03:12:04.914Z,56.00
2024-03-04T03:13:36.501Z,58.83
2024-03-04T03:15:08.168Z,55.88
2024-03-04T03:16:39.628Z,57.05
2024-03-04T03:18:14.831Z,57.97
2024-03-04T03:19:46.340Z,56.30
2024-03-04T03:21:18.601Z,58.63
2024-03-04T03:22:50.296Z,55.13
2024-03-04T03:24:22.393Z,57.35
2024-03-04T03:25:53.878Z,60.15
2024-03-04T03:27:25.373Z,62.10
2024-03-04T03:28:57.777Z,60.60
2024-03-04T03:30:29.298Z,61.08
2024-03-04T03:32:00.713Z,61.67
2024-03-04T03:33:33.001Z,62.17
2024-03-04T03:35:05.399Z,60.42
2024-03-04T03:36:43.915Z,58.63
2024-03-04T03:38:15.413Z,59.08
2024-03-04T03:39:46.934Z,61.53
2024-03-04T03:41:18.507Z,58.92
2024-03-04T03:42:49.936Z,58.72
2024-03-04T03:44:21.311Z,60.75
2024-03-04T03:45:52.945Z,58.75
2024-03-04T03:47:24.387Z,59.88
2024-03-04T03:48:56.408Z,59.47
2024-03-04T03:50:27.874Z,60.30
2024-03-04T03:51:59.345Z,60.95
2024-03-04T03:53:34.759Z,64.47
2024-03-04T03:55:06.479Z,61.65
2024-03-04T03:56:41.264Z,61.20
2024-03-04T03:58:12.726Z,60.28
2024-03-04T03:59:44.880Z,60.85
2024-03-04T04:01:16.498Z,58.90
2024-03-04T04:02:48.007Z,60.00
2024-03-04T04:04:19.605Z,59.90
2024-03-04T04:05:51.050Z,59.08
2024-03-04T04:07:22.704Z,58.90
2024-03-04T04:08:54.408Z,61.88
2024-03-04T04:10:26.072Z,60.75
2024-03-04T04:11:57.591Z,58.65
2024-03-04T04:13:30.027Z,59.80
2024-03-04T04:15:01.909Z,62.92
2024-03-04T04:16:34.602Z,61.85
2024-03-04T04:18:06.114Z,62.47
2024-03-04T04:19:37.613Z,62.33
2024-03-04T04:21:09.914Z,60.70
2024-03-04T04:22:41.856Z,61.42
2024-03-04T04:24:13.303Z,55.03
2024-03-04T04:25:44.764Z,62.72
2024-03-04T04:27:16.217Z,61.75
2024-03-04T04:28:47.600Z,65.18
2024-03-04T04:30:19.243Z,63.10
2024-03-04T04:31:50.630Z,61.88
2024-03-04T04:33:23.890Z,64.80
2024-03-04T04:34:55.272Z,60.88
2024-03-04T04:36:27.167Z,65.18
2024-03-04T04:37:58.564Z,61.65
2024-03-04T04:39:29.938Z,65.53
2024-03-04T04:41:01.332Z,61.15
2024-03-04T04:42:32.905Z,63.17
2024-03-04T04:44:04.498Z,63.50
2024-03-04T04:45:35.955Z,64.55
2024-03-04T04:47:07.396Z,64.10
2024-03-04T04:48:39.051Z,64.28
2024-03-04T04:50:11.720Z,64.85
2024-03-04T04:51:43.496Z,69.68
2024-03-04T04:53:15.090Z,70.60
2024-03-04T04:54:46.807Z,67.45
2024-03-04T04:56:18.793Z,66.00
2024-03-04T04:57:50.277Z,67.53
2024-03-04T04:59:21.966Z,69.40
2024-03-04T05:00:54.241Z,71.53
2024-03-04T05:02:25.727Z,71.90
2024-03-04T05:04:14.300Z,70.00
2024-03-04T05:05:50.351Z,66.97
2024-03-04T05:07:21.887Z,69.13
2024-03-04T05:08:53.764Z,70.25
2024-03-04T05:10:25.227Z,72.07
2024-03-04T05:11:56.781Z,76.65
2024-03-04T05:13:28.236Z,70.63
2024-03-04T05:15:00.154Z,80.40
2024-03-04T05:16:31.742Z,79.35
2024-03-04T05:18:03.354Z,75.55
2024-03-04T05:19:38.950Z,79.80
2024-03-04T05:21:10.451Z,79.38
2024-03-04T05:22:41.938Z,79.95
2024-03-04T05:24:13.466Z,79.55
2024-03-04T05:25:45.007Z,72.10
2024-03-04T05:27:16.690Z,78.03
2024-03-04T05:28:48.099Z,75.82
2024-03-04T05:30:20.253Z,78.35
2024-03-04T05:31:58.112Z,82.47
2024-03-04T05:33:29.515Z,81.30
2024-03-04T05:35:00.965Z,86.00
2024-03-04T05:36:32.469Z,87.07
2024-03-04T05:38:04.132Z,84.15
2024-03-04T05:39:35.693Z,86.50
2024-03-04T05:41:07.085Z,90.55
2024-03-04T05:42:40.755Z,84.13
2024-03-04T05:44:12.489Z,84.15
2024-03-04T05:45:43.993Z,81.00
2024-03-04T05:47:15.876Z,83.82
2024-03-04T05:48:47.661Z,88.13
2024-03-04T05:50:19.212Z,74.00
2024-03-04T05:51:51.534Z,89.72
2024-03-04T05:53:23.268Z,88.28
2024-03-04T05:54:54.824Z,80.32
2024-03-04T05:56:26.220Z,79.72
2024-03-04T05:57:57.677Z,87.32
2024-03-04T05:59:29.217Z,84.95
2024-03-04T06:01:01.711Z,97.07
2024-03-04T06:02:33.281Z,97.68
2024-03-04T06:04:05.655Z,99.45
2024-03-04T06:05:37.076Z,89.35
2024-03-04T06:07:08.532Z,89.93
2024-03-04T06:08:39.939Z,87.97
2024-03-04T06:10:11.657Z,87.60
2024-03-04T06:13:15.731Z,89.10
2024-03-04T06:14:47.226Z,98.60
2024-03-04T06:16:18.706Z,85.18
2024-03-04T06:17:50.471Z,88.25
2024-03-04T06:19:22.043Z,78.97
2024-03-04T06:20:53.438Z,94.57
2024-03-04T06:22:27.665Z,88.88
2024-03-04T06:24:00.903Z,93.65
2024-03-04T06:25:32.333Z,97.15
2024-03-04T06:27:04.088Z,77.97
2024-03-04T06:28:36.330Z,91.70
2024-03-04T06:30:12.209Z,83.53
2024-03-04T06:31:43.802Z,78.95
2024-03-04T06:33:15.439Z,90.43
2024-03-04T06:34:47.178Z,91.30
2024-03-04T06:36:19.035Z,78.93
2024-03-04T06:37:51.945Z,104.70
2024-03-04T06:39:23.399Z,87.45
2024-03-04T06:40:54.982Z,91.57
2024-03-04T06:42:26.715Z,82.35
2024-03-04T06:43:58.108Z,91.80
2024-03-04T06:45:29.560Z,94.38
2024-03-04T06:47:01.068Z,92.70
2024-03-04T06:48:32.513Z,91.15
2024-03-04T06:50:05.574Z,75.28
2024-03-04T06:51:37.216Z,86.78
2024-03-04T06:53:10.285Z,76.93
2024-03-04T06:54:41.692Z,86.70
2024-03-04T06:56:13.824Z,85.78
2024-03-04T06:57:45.409Z,72.15
2024-03-04T06:59:16.840Z,73.60
2024-03-04T07:02:24.611Z,94.53
2024-03-04T07:03:56.729Z,85.20
2024-03-04T07:05:28.163Z,77.20
2024-03-04T07:07:00.032Z,75.10
2024-03-04T07:08:33.565Z,70.03
2024-03-04T07:10:05.658Z,67.25
2024-03-04T07:11:37.201Z,71.50
2024-03-04T07:13:09.107Z,68.45
2024-03-04T07:14:40.642Z,66.80
2024-03-04T07:16:19.015Z,61.80
2024-03-04T07:17:50.580Z,63.53
2024-03-04T07:19:22.074Z,58.20
2024-03-04T07:20:53.475Z,58.78
2024-03-04T07:22:24.958Z,59.55
2024-03-04T07:23:56.511Z,57.55
2024-03-04T07:25:27.974Z,59.50
2024-03-04T07:26:59.392Z,58.35
2024-03-04T07:28:31.113Z,66.70
2024-03-04T07:30:03.707Z,67.57
2024-03-04T07:31:37.069Z,64.80
2024-03-04T07:33:10.782Z,59.22
2024-03-04T07:34:42.400Z,61.38
2024-03-04T07:36:17.113Z,58.65
2024-03-04T07:37:49.100Z,57.08
2024-03-04T07:39:20.605Z,59.58
2024-03-04T07:40:52.296Z,58.70
2024-03-04T07:42:25.082Z,62.85
2024-03-04T07:43:57.119Z,58.95
2024-03-04T07:45:28.540Z,59.45
2024-03-04T07:46:59.945Z,63.67
2024-03-04T07:48:31.332Z,59.35
2024-03-04T07:50:02.791Z,62.17
2024-03-04T07:51:34.231Z,60.15
2024-03-04T07:53:05.679Z,60.85
2024-03-04T07:54:37.084Z,58.53
2024-03-04T07:56:10.123Z,60.47
2024-03-04T07:57:43.947Z,57.45
2024-03-04T07:59:15.455Z,61.83
2024-03-04T08:00:46.921Z,62.33
2024-03-04T08:02:18.324Z,59.35
2024-03-04T08:03:49.739Z,60.08
2024-03-04T08:05:21.369Z,60.83
2024-03-04T08:06:52.851Z,58.75
2024-03-04T08:08:24.436Z,57.55
2024-03-04T08:09:55.966Z,56.97
2024-03-04T08:11:27.524Z,54.20
2024-03-04T08:12:59.077Z,56.47
2024-03-04T08:14:30.630Z,55.72
2024-03-04T08:16:02.399Z,56.63
2024-03-04T08:17:34.427Z,53.97
2024-03-04T08:19:07.057Z,53.88
2024-03-04T08:20:38.560Z,54.20
2024-03-04T08:22:10.002Z,53.00
2024-03-04T08:23:41.935Z,51.45
2024-03-04T08:25:13.436Z,53.05
2024-03-04T08:26:45.019Z,54.50
2024-03-04T08:28:23.575Z,56.63
2024-03-04T08:30:00.166Z,53.45
2024-03-04T08:31:32.645Z,52.42
2024-03-04T08:33:05.614Z,51.55
2024-03-04T08:34:37.273Z,52.92
2024-03-04T08:36:09.288Z,53.15
2024-03-04T08:37:41.351Z,52.92
2024-03-04T08:39:12.930Z,54.40
2024-03-04T08:40:44.655Z,50.50
2024-03-04T08:42:16.284Z,52.47
2024-03-04T08:43:48.904Z,50.53
2024-03-04T08:45:20.488Z,51.42
2024-03-04T08:46:51.977Z,50.25
2024-03-04T08:48:24.018Z,49.72
2024-03-04T08:49:57.664Z,49.53
2024-03-04T08:51:29.654Z,50.10
2024-03-04T08:53:01.089Z,49.85
2024-03-04T08:54:32.989Z,48.10
2024-03-04T08:56:07.763Z,49.03
2024-03-04T08:57:39.263Z,47.25
2024-03-04T08:59:10.972Z,46.30
2024-03-04T09:00:42.536Z,47.45
2024-03-04T09:02:14.068Z,46.60
2024-03-04T09:03:45.496Z,46.92
2024-03-04T09:05:17.065Z,46.88
2024-03-04T09:06:50.364Z,42.47
2024-03-04T09:08:21.791Z,43.58
2024-03-04T09:09:54.480Z,45.50
2024-03-04T09:11:26.487Z,43.85
2024-03-04T09:12:58.055Z,44.47
2024-03-04T09:14:30.831Z,42.72
2024-03-04T09:16:03.739Z,44.75
2024-03-04T09:17:35.236Z,42.33
2024-03-04T09:19:06.682Z,41.35
2024-03-04T09:20:38.111Z,41.72
2024-03-04T09:22:09.657Z,42.08
2024-03-04T09:23:41.110Z,41.90
2024-03-04T09:25:12.627Z,41.58
2024-03-04T09:26:47.635Z,39.13
2024-03-04T09:28:20.007Z,40.78
2024-03-04T09:29:51.501Z,39.53
2024-03-04T09:31:22.967Z,41.47
2024-03-04T09:32:54.431Z,41.60
2024-03-04T09:34:25.908Z,38.25
2024-03-04T09:35:57.428Z,41.15
2024-03-04T09:37:28.865Z,40.80
2024-03-04T09:39:00.302Z,38.47
2024-03-04T09:40:32.321Z,39.45
2024-03-04T09:42:03.887Z,39.75
2024-03-04T09:43:39.010Z,39.50
2024-03-04T09:45:11.282Z,38.85
2024-03-04T09:46:44.394Z,39.55
2024-03-04T09:48:17.527Z,40.35
2024-03-04T09:49:52.236Z,38.10
2024-03-04T09:51:25.578Z,39.30
2024-03-04T09:52:59.413Z,36.97
2024-03-04T09:54:32.461Z,35.72
2024-03-04T09:56:05.133Z,37.13
2024-03-04T09:57:37.352Z,37.70
2024-03-04T09:59:08.833Z,37.58
2024-03-04T10:00:43.604Z,35.97
2024-03-04T10:02:17.018Z,35.20
2024-03-04T10:03:49.150Z,36.08
2024-03-04T10:05:21.608Z,33.92
2024-03-04T10:06:53.447Z,34.10
2024-03-04T10:08:25.627Z,34.20
2024-03-04T10:09:58.695Z,33.55
2024-03-04T10:11:30.088Z,33.42
2024-03-04T10:13:02.672Z,33.95
2024-03-04T10:14:54.451Z,34.03
2024-03-04T10:16:28.271Z,33.95
2024-03-04T10:18:11.429Z,34.50
2024-03-04T10:19:43.141Z,33.78
2024-03-04T10:21:14.824Z,34.85
2024-03-04T10:22:46.349Z,34.67
2024-03-04T10:24:17.785Z,33.60
2024-03-04T10:26:06.159Z,33.80
2024-03-04T10:27:39.615Z,33.58
2024-03-04T10:29:13.718Z,33.42
2024-03-04T10:30:45.627Z,34.85
2024-03-04T10:32:18.307Z,34.55
2024-03-04T10:33:50.033Z,34.67
2024-03-04T10:35:21.660Z,35.47
2024-03-04T10:36:58.727Z,35.90
2024-03-04T10:38:30.224Z,36.30
2024-03-04T10:40:01.886Z,37.40
2024-03-04T10:41:35.341Z,38.45
2024-03-04T10:43:07.731Z,38.15
2024-03-04T10:44:39.782Z,38.03
2024-03-04T10:46:14.806Z,37.40
2024-03-04T10:47:46.979Z,37.22
2024-03-04T10:49:18.964Z,39.63
2024-03-04T10:50:50.661Z,38.53
2024-03-04T10:52:22.719Z,37.80
2024-03-04T10:53:54.206Z,37.47
2024-03-04T10:55:25.980Z,37.28
2024-03-04T10:57:06.005Z,35.00
2024-03-04T10:58:43.127Z,35.63
2024-03-04T11:00:21.484Z,33.58
2024-03-04T11:01:53.401Z,33.55
2024-03-04T11:03:28.158Z,32.92
2024-03-04T11:05:02.977Z,34.13
2024-03-04T11:06:35.746Z,34.13
2024-03-04T11:08:17.645Z,33.58
2024-03-04T11:09:53.866Z,33.53
2024-03-04T11:11:37.113Z,32.40
2024-03-04T11:13:19.296Z,32.13
2024-03-04T11:15:01.123Z,31.67
2024-03-04T11:16:48.782Z,31.73
2024-03-04T11:19:03.042Z,31.75
2024-03-04T11:20:36.041Z,31.65
2024-03-04T11:22:08.664Z,31.35
2024-03-04T11:23:40.404Z,31.77
2024-03-04T11:25:13.163Z,32.13
2024-03-04T11:26:45.747Z,32.55
2024-03-04T11:28:20.330Z,34.28
2024-03-04T11:29:53.463Z,32.50
2024-03-04T11:31:25.651Z,33.50
2024-03-04T11:32:57.231Z,32.78
2024-03-04T11:34:28.718Z,33.45
2024-03-04T11:36:00.160Z,33.08
2024-03-04T11:37:32.343Z,33.20
2024-03-04T11:39:14.453Z,32.40
2024-03-04T11:40:46.544Z,33.17
2024-03-04T11:42:39.806Z,32.05
2024-03-04T11:44:12.729Z,33.22
2024-03-04T11:45:44.143Z,31.73
2024-03-04T11:47:15.566Z,32.40
2024-03-04T11:48:50.325Z,31.17
2024-03-04T11:50:49.808Z,32.30
2024-03-04T11:52:24.627Z,30.63
2024-03-04T11:53:57.235Z,33.20
2024-03-04T11:55:29.528Z,31.67
2024-03-04T11:57:02.049Z,31.38
2024-03-04T11:58:34.744Z,32.78
2024-03-04T12:00:15.135Z,32.58
2024-03-04T12:01:46.632Z,32.03
2024-03-04T12:03:20.273Z,31.17
2024-03-04T12:04:52.157Z,31.48
2024-03-04T12:06:23.766Z,32.00
2024-03-04T12:07:55.404Z,33.30
2024-03-04T12:09:45.305Z,32.63
2024-03-04T12:11:20.042Z,32.65
2024-03-04T12:12:52.013Z,32.53
2024-03-04T12:14:24.198Z,32.40
2024-03-04T12:15:58.568Z,32.15
2024-03-04T12:17:30.747Z,32.70
2024-03-04T12:19:02.477Z,33.30
2024-03-04T12:20:34.551Z,32.80
2024-03-04T12:22:06.139Z,33.63
2024-03-04T12:23:37.579Z,32.85
2024-03-04T12:25:10.956Z,33.33
2024-03-04T12:26:48.756Z,33.03
2024-03-04T12:28:20.380Z,32.33
2024-03-04T12:29:51.858Z,33.33
2024-03-04T12:31:23.433Z,33.50
2024-03-04T12:33:00.249Z,34.10
2024-03-04T12:34:32.486Z,33.97
2024-03-04T12:36:07.272Z,34.63
2024-03-04T12:37:38.711Z,31.33
2024-03-04T12:39:13.418Z,31.75
2024-03-04T12:40:45.125Z,31.25
2024-03-04T12:42:17.368Z,32.22
2024-03-04T12:43:50.389Z,31.48
2024-03-04T12:45:23.934Z,31.25
2024-03-04T12:46:56.229Z,30.88
2024-03-04T12:48:28.713Z,32.05
2024-03-04T12:50:00.273Z,32.58
2024-03-04T12:51:36.309Z,33.05
2024-03-04T12:53:07.865Z,31.20
2024-03-04T12:54:39.273Z,32.60
2024-03-04T12:56:10.720Z,31.95
2024-03-04T12:57:43.333Z,32.05
2024-03-04T12:59:14.736Z,32.72
2024-03-04T13:00:47.471Z,32.65
2024-03-04T13:02:18.899Z,32.40
2024-03-04T13:03:50.335Z,31.40
2024-03-04T13:05:21.813Z,31.75
2024-03-04T13:06:53.837Z,31.73
2024-03-04T13:08:25.312Z,31.10
2024-03-04T13:09:56.712Z,30.27
2024-03-04T13:11:28.262Z,30.80
2024-03-04T13:13:00.436Z,30.63
2024-03-04T13:14:34.249Z,30.27
2024-03-04T13:16:05.911Z,28.85
2024-03-04T13:17:41.621Z,29.95
2024-03-04T13:19:16.867Z,28.75
2024-03-04T13:20:48.650Z,29.38
2024-03-04T13:22:20.343Z,28.00
2024-03-04T13:23:52.059Z,28.65
2024-03-04T13:25:24.094Z,26.75
2024-03-04T13:26:55.545Z,28.73
2024-03-04T13:28:26.936Z,29.35
2024-03-04T13:29:58.578Z,28.42
2024-03-04T13:31:30.210Z,27.67
2024-03-04T13:33:01.715Z,28.52
2024-03-04T13:34:34.149Z,27.10
2024-03-04T13:36:06.051Z,27.23
2024-03-04T13:37:38.185Z,27.08
2024-03-04T13:39:10.137Z,26.05
2024-03-04T13:40:41.683Z,27.05
2024-03-04T13:42:13.137Z,25.25
2024-03-04T13:43:44.567Z,26.23
2024-03-04T13:45:16.172Z,25.52
2024-03-04T13:46:47.683Z,25.08
2024-03-04T13:48:19.389Z,25.80
2024-03-04T13:49:51.032Z,25.65
2024-03-04T13:51:22.579Z,24.38
2024-03-04T13:52:55.382Z,24.25
2024-03-04T13:54:31.343Z,24.35
2024-03-04T13:56:03.739Z,24.17
2024-03-04T13:57:35.149Z,24.63
2024-03-04T13:59:10.691Z,24.15
2024-03-04T14:00:43.262Z,23.48
2024-03-04T14:02:14.867Z,22.45
2024-03-04T14:03:46.349Z,23.38
2024-03-04T14:05:17.877Z,23.13
2024-03-04T14:06:49.250Z,24.15
2024-03-04T14:08:21.143Z,24.00
2024-03-04T14:09:52.636Z,23.92
2024-03-04T14:11:24.480Z,24.80
2024-03-04T14:12:56.013Z,23.23
2024-03-04T14:14:28.890Z,23.52
2024-03-04T14:16:00.470Z,22.90
2024-03-04T14:17:33.237Z,22.73
2024-03-04T14:19:05.913Z,23.08
2024-03-04T14:20:37.333Z,23.88
2024-03-04T14:22:09.434Z,22.38
2024-03-04T14:23:41.652Z,23.50
2024-03-04T14:25:13.366Z,22.67
2024-03-04T14:26:44.783Z,22.05
2024-03-04T14:28:18.271Z,23.30
2024-03-04T14:29:49.689Z,22.63
2024-03-04T14:31:21.354Z,22.50
2024-03-04T14:32:52.922Z,22.70
2024-03-04T14:34:27.847Z,21.95
2024-03-04T14:35:59.328Z,23.30
2024-03-04T14:37:30.825Z,21.52
2024-03-04T14:39:02.357Z,22.33
2024-03-04T14:40:33.901Z,22.17
2024-03-04T14:42:05.590Z,23.13
2024-03-04T14:43:37.009Z,22.67
2024-03-04T14:45:08.937Z,22.73
2024-03-04T14:46:42.426Z,22.42
2024-03-04T14:48:14.031Z,22.70
2024-03-04T14:49:45.609Z,22.95
2024-03-04T14:51:17.397Z,23.02
2024-03-04T14:52:48.960Z,22.95
2024-03-04T14:54:20.473Z,22.95
2024-03-04T14:55:51.958Z,22.40
2024-03-04T14:57:24.012Z,21.38
2024-03-04T14:58:59.288Z,22.75
2024-03-04T15:00:32.470Z,23.15
2024-03-04T15:02:04.196Z,22.13
2024-03-04T15:03:35.789Z,20.70
2024-03-04T15:05:09.534Z,22.10
2024-03-04T15:06:41.186Z,22.35
2024-03-04T15:08:12.936Z,22.23
2024-03-04T15:09:44.331Z,20.58
2024-03-04T15:11:16.524Z,21.55
2024-03-04T15:12:48.116Z,22.65
2024-03-04T15:14:20.573Z,21.50
2024-03-04T15:15:51.975Z,21.92
2024-03-04T15:17:24.264Z,21.98
2024-03-04T15:18:55.791Z,21.27
2024-03-04T15:20:27.538Z,21.52
2024-03-04T15:21:59.982Z,20.42
2024-03-04T15:23:34.343Z,21.02
2024-03-04T15:25:07.579Z,20.70
2024-03-04T15:26:39.024Z,22.08
2024-03-04T15:28:12.441Z,20.92
2024-03-04T15:29:44.395Z,20.73
2024-03-04T15:31:17.015Z,21.48
2024-03-04T15:32:48.448Z,21.35
2024-03-04T15:34:20.069Z,21.73
2024-03-04T15:35:56.518Z,22.02
2024-03-04T15:37:31.941Z,20.42
2024-03-04T15:39:04.666Z,20.42
2024-03-04T15:40:36.307Z,22.55
2024-03-04T15:42:10.369Z,20.90
2024-03-04T15:43:42.143Z,20.75
2024-03-04T15:45:13.652Z,21.00
2024-03-04T15:46:47.759Z,20.65
2024-03-04T15:48:20.367Z,22.27
2024-03-04T15:49:53.052Z,22.25
2024-03-04T15:51:24.586Z,21.80
2024-03-04T15:52:56.004Z,21.83
2024-03-04T15:54:27.431Z,21.65
2024-03-04T15:55:58.985Z,21.95
2024-03-04T15:57:30.413Z,21.90
2024-03-04T15:59:01.932Z,22.13
2024-03-04T16:00:35.069Z,22.77
2024-03-04T16:02:06.781Z,22.42
2024-03-04T16:03:38.267Z,23.10
2024-03-04T16:05:10.578Z,22.50
2024-03-04T16:06:45.012Z,22.80
2024-03-04T16:08:16.619Z,23.60
2024-03-04T16:09:48.036Z,23.30
2024-03-04T16:11:19.442Z,23.70
2024-03-04T16:12:50.882Z,23.42
2024-03-04T16:14:22.396Z,24.25
2024-03-04T16:15:56.719Z,25.30
2024-03-04T16:17:29.646Z,23.45
2024-03-04T16:19:01.203Z,24.25
2024-03-04T16:20:32.632Z,24.45
2024-03-04T16:22:04.231Z,23.40
2024-03-04T16:23:35.803Z,23.63
2024-03-04T16:25:07.580Z,24.67
2024-03-04T16:26:39.217Z,25.38
2024-03-04T16:28:10.665Z,24.98
2024-03-04T16:29:42.237Z,23.80
2024-03-04T16:31:13.707Z,25.58
2024-03-04T16:32:45.516Z,25.50
2024-03-04T16:34:17.155Z,24.48
2024-03-04T16:35:48.604Z,26.30
2024-03-04T16:37:20.737Z,26.10
2024-03-04T16:38:52.313Z,26.20
2024-03-04T16:40:23.967Z,27.17
2024-03-04T16:41:56.070Z,26.15
2024-03-04T16:43:27.509Z,26.30
2024-03-04T16:44:59.082Z,26.55
2024-03-04T16:46:30.475Z,26.83
2024-03-04T16:48:02.058Z,27.33
2024-03-04T16:49:33.554Z,26.65
2024-03-04T16:51:05.224Z,26.98
2024-03-04T16:52:37.160Z,26.27
2024-03-04T16:54:08.850Z,27.15
2024-03-04T16:55:41.142Z,26.67
2024-03-04T16:57:12.616Z,28.77
2024-03-04T16:58:44.162Z,27.05
2024-03-04T17:00:17.906Z,28.63
2024-03-04T17:01:50.278Z,27.45
2024-03-04T17:03:22.150Z,28.10
2024-03-04T17:04:54.353Z,28.73
2024-03-04T17:06:27.772Z,28.58
2024-03-04T17:07:59.301Z,28.60
2024-03-04T17:09:30.935Z,29.38
2024-03-04T17:11:02.846Z,28.63
2024-03-04T17:12:34.770Z,30.10
2024-03-04T17:14:06.333Z,30.90
2024-03-04T17:15:37.865Z,29.48
2024-03-04T17:17:09.350Z,30.05
2024-03-04T17:18:40.913Z,29.40
2024-03-04T17:20:14.145Z,28.88
2024-03-04T17:21:46.342Z,29.27
2024-03-04T17:23:17.827Z,31.02
2024-03-04T17:24:49.369Z,31.05
2024-03-04T17:26:22.694Z,30.73
2024-03-04T17:27:54.099Z,32.03
2024-03-04T17:29:25.606Z,29.67
2024-03-04T17:30:57.359Z,30.65
2024-03-04T17:32:30.004Z,30.23
2024-03-04T17:34:01.629Z,30.02
2024-03-04T17:35:33.003Z,29.30
2024-03-04T17:37:04.732Z,29.27
2024-03-04T17:38:36.507Z,30.92
2024-03-04T17:40:09.743Z,28.35
2024-03-04T17:41:41.265Z,31.23
2024-03-04T17:43:12.809Z,29.15
2024-03-04T17:44:44.300Z,28.80
2024-03-04T17:46:15.882Z,29.38
2024-03-04T17:47:47.396Z,29.83
2024-03-04T17:49:19.060Z,30.13
2024-03-04T17:50:50.480Z,29.25
2024-03-04T17:52:22.555Z,30.35
2024-03-04T17:53:54.100Z,29.05
2024-03-04T17:55:25.667Z,28.92
2024-03-04T17:56:57.103Z,28.20
2024-03-04T17:58:28.494Z,28.88
2024-03-04T17:59:59.916Z,29.52
2024-03-04T18:01:31.552Z,29.02
2024-03-04T18:03:03.374Z,29.52
2024-03-04T18:04:35.611Z,29.27
2024-03-04T18:06:07.202Z,28.63
2024-03-04T18:07:39.752Z,28.55
2024-03-04T18:09:11.322Z,28.95
2024-03-04T18:10:45.670Z,28.58
2024-03-04T18:12:17.245Z,29.20
2024-03-04T18:13:48.708Z,27.88
2024-03-04T18:15:20.299Z,27.80
2024-03-04T18:16:51.966Z,28.52
2024-03-04T18:18:24.394Z,28.38
2024-03-04T18:19:56.146Z,27.27
2024-03-04T18:21:27.691Z,26.45
2024-03-04T18:22:59.075Z,27.15
2024-03-04T18:24:31.229Z,27.45
2024-03-04T18:26:02.835Z,26.48
2024-03-04T18:27:34.237Z,27.05
2024-03-04T18:29:05.919Z,25.77
2024-03-04T18:30:37.301Z,26.52
2024-03-04T18:32:08.976Z,25.70
2024-03-04T18:33:40.391Z,25.83
2024-03-04T18:35:12.587Z,25.17
2024-03-04T18:36:46.018Z,26.55
2024-03-04T18:38:18.088Z,25.27
2024-03-04T18:39:49.498Z,26.40
2024-03-04T18:41:21.882Z,24.55
2024-03-04T18:42:53.448Z,26.40
2024-03-04T18:44:24.836Z,25.08
2024-03-04T18:45:56.313Z,26.40
2024-03-04T18:47:27.875Z,24.95
2024-03-04T18:48:59.839Z,24.58
2024-03-04T18:50:31.210Z,24.08
2024-03-04T18:52:02.660Z,23.00
2024-03-04T18:53:35.080Z,23.88
2024-03-04T18:55:07.695Z,25.15
2024-03-04T18:56:43.179Z,24.88
2024-03-04T18:58:14.593Z,24.45
2024-03-04T18:59:47.614Z,26.27
2024-03-04T19:01:27.484Z,24.75
2024-03-04T19:02:58.948Z,26.27
2024-03-04T19:04:30.718Z,26.20
2024-03-04T19:06:02.259Z,25.08
2024-03-04T19:07:33.927Z,26.25
2024-03-04T19:09:09.039Z,24.90
2024-03-04T19:10:40.451Z,25.02
2024-03-04T19:12:12.261Z,24.65
2024-03-04T19:13:43.841Z,25.20
2024-03-04T19:15:15.288Z,24.33
2024-03-04T19:16:46.862Z,23.75
2024-03-04T19:18:19.755Z,24.58
2024-03-04T19:19:51.154Z,24.70
2024-03-04T19:21:26.331Z,25.60
2024-03-04T19:22:58.440Z,23.17
2024-03-04T19:24:30.042Z,23.52
2024-03-04T19:26:01.483Z,23.23
2024-03-04T19:27:33.667Z,24.02
2024-03-04T19:29:05.248Z,22.30
2024-03-04T19:30:36.722Z,22.00
2024-03-04T19:32:08.116Z,21.23
2024-03-04T19:33:39.512Z,20.98
2024-03-04T19:35:12.887Z,21.63
2024-03-04T19:36:44.330Z,22.35
2024-03-04T19:38:16.478Z,20.23
2024-03-04T19:39:47.969Z,20.48
2024-03-04T19:41:23.413Z,19.77
2024-03-04T19:42:55.013Z,19.23
2024-03-04T19:44:26.381Z,19.30
2024-03-04T19:45:57.789Z,18.45
2024-03-04T19:47:30.724Z,19.67
2024-03-04T19:49:02.696Z,19.38
2024-03-04T19:50:34.097Z,19.73
2024-03-04T19:52:05.676Z,18.80
2024-03-04T19:53:40.746Z,20.25
2024-03-04T19:55:12.918Z,21.08
2024-03-04T19:56:44.433Z,19.17